Time;durP1;ratioP1;P1;durP2;ratioP2;P2;SDS_P1;SDS_P2;PMS_P1;PMS_P2;Temp;Humidity;BMP_temperature;BMP_pressure;BME280_temperature;BME280_humidity;BME280_pressure;Samples;Min_cycle;Max_cycle;Signal;HPM_P1;HPM_P2
2022/08/23 00:02:25;;;;;;;42.50;29.63;;;;;;;23.59;38.52;100718.53;5031448;28;20052;-55
2022/08/23 00:04:51;;;;;;;42.97;28.77;;;;;;;23.51;38.78;100717.59;5013182;28;20129;-57
2022/08/23 00:07:17;;;;;;;38.63;29.27;;;;;;;23.59;38.52;100716.63;5013435;28;20390;-55
2022/08/23 00:09:43;;;;;;;41.90;29.13;;;;;;;23.53;38.67;100728.34;5025356;28;20037;-52
2022/08/23 00:12:16;;;;;;;46.05;30.58;;;;;;;23.58;38.45;100723.16;5033149;28;20053;-56
2022/08/23 00:14:53;;;;;;;44.40;29.83;;;;;;;23.62;38.58;100723.63;5017776;28;20037;-53
2022/08/23 00:17:19;;;;;;;37.80;29.30;;;;;;;23.54;38.69;100721.84;5031769;28;20025;-55
2022/08/23 00:19:46;;;;;;;48.10;31.33;;;;;;;23.54;38.73;100724.56;5032945;28;20032;-55
2022/08/23 00:22:14;;;;;;;42.65;30.13;;;;;;;23.41;38.88;100711.56;5029487;28;20045;-51
2022/08/23 00:24:40;;;;;;;40.10;29.42;;;;;;;23.44;38.88;100721.28;5033349;28;20140;-50
2022/08/23 00:27:11;;;;;;;41.75;28.55;;;;;;;23.45;38.88;100729.25;5033264;28;20493;-55
2022/08/23 00:29:43;;;;;;;37.97;29.23;;;;;;;23.39;38.99;100735.47;5020316;28;20041;-51
2022/08/23 00:32:13;;;;;;;41.45;29.27;;;;;;;23.28;39.29;100734.06;5012905;28;20088;-51
2022/08/23 00:34:39;;;;;;;42.60;28.83;;;;;;;23.26;39.35;100736.13;5011827;28;20471;-56
2022/08/23 00:37:05;;;;;;;39.45;27.25;;;;;;;23.20;39.42;100732.22;5012666;28;20037;-53
2022/08/23 00:39:31;;;;;;;43.95;29.20;;;;;;;23.20;39.87;100734.94;5031847;28;20038;-56
2022/08/23 00:47:38;;;;;;;37.60;27.83;;;;;;;23.14;39.73;100732.09;5032651;28;20025;-55
2022/08/23 00:47:38;;;;;;;43.85;29.27;;;;;;;23.01;40.21;100739.03;5020065;28;20466;-52
2022/08/23 00:50:16;;;;;;;37.58;29.83;;;;;;;23.06;39.84;100738.50;5012380;28;20496;-55
2022/08/23 00:52:49;;;;;;;42.88;30.35;;;;;;;22.94;40.31;100738.94;5016455;28;20033;-56
2022/08/23 00:55:17;;;;;;;48.33;28.65;;;;;;;22.89;40.62;100743.22;5032293;28;20198;-53
2022/08/23 00:57:43;;;;;;;39.75;28.45;;;;;;;22.76;40.76;100741.09;5032203;28;20033;-50
2022/08/23 01:00:09;;;;;;;37.17;28.45;;;;;;;22.65;40.94;100747.84;5016113;28;20474;-48
2022/08/23 01:02:35;;;;;;;40.15;28.75;;;;;;;22.61;41.27;100743.78;5012469;28;20132;-54
2022/08/23 01:05:02;;;;;;;38.65;28.50;;;;;;;22.54;41.39;100748.25;5012476;28;20046;-53
2022/08/23 01:07:53;;;;;;;41.97;28.63;;;;;;;22.59;41.44;100756.75;5030827;28;20046;-53
2022/08/23 01:10:28;;;;;;;35.67;27.45;;;;;;;22.55;41.21;100760.88;5032424;28;20037;-54
2022/08/23 01:13:08;;;;;;;41.13;29.10;;;;;;;22.60;41.24;100763.91;5032068;28;20382;-57
2022/08/23 01:15:42;;;;;;;37.75;27.85;;;;;;;22.54;41.39;100753.72;5017392;28;20381;-64
2022/08/23 01:18:12;;;;;;;37.10;27.98;;;;;;;22.46;41.78;100760.03;5032421;28;20045;-53
2022/08/23 01:20:44;;;;;;;37.35;26.98;;;;;;;22.31;41.71;100735.41;5025527;28;20026;-55
2022/08/23 01:23:32;;;;;;;37.53;26.85;;;;;;;22.41;41.81;100765.19;5019154;28;20030;-54
2022/08/23 01:25:59;;;;;;;37.35;27.08;;;;;;;22.33;42.08;100774.25;5012291;28;20057;-54
2022/08/23 01:28:25;;;;;;;39.70;27.25;;;;;;;22.27;42.11;100769.53;5011947;28;20026;-54
2022/08/23 01:30:51;;;;;;;40.05;27.20;;;;;;;22.26;42.46;100778.75;5024798;28;20083;-53
2022/08/23 01:33:16;;;;;;;39.20;27.23;;;;;;;22.25;42.49;100777.88;5031950;28;20075;-56
2022/08/23 01:35:46;;;;;;;35.60;26.58;;;;;;;22.23;42.58;100778.06;5030101;28;20335;-58
2022/08/23 01:38:12;;;;;;;36.20;26.75;;;;;;;22.17;42.39;100784.22;5030938;28;20026;-55
2022/08/23 01:40:39;;;;;;;37.20;26.65;;;;;;;22.18;42.54;100783.19;5030249;28;20531;-54
2022/08/23 01:43:05;;;;;;;35.20;25.42;;;;;;;22.21;42.71;100777.41;5015865;28;20080;-59
2022/08/23 01:45:32;;;;;;;39.55;25.83;;;;;;;22.18;42.66;100782.34;5012082;28;20118;-56
2022/08/23 01:47:58;;;;;;;38.15;26.38;;;;;;;22.01;42.61;100757.88;5017302;28;20037;-50
2022/08/23 01:50:24;;;;;;;38.45;25.27;;;;;;;22.11;42.76;100784.94;5031547;28;20041;-54
2022/08/23 01:52:50;;;;;;;35.50;25.98;;;;;;;22.11;42.65;100779.47;5031691;28;20025;-55
2022/08/23 01:55:16;;;;;;;38.58;25.30;;;;;;;22.08;43.19;100788.00;5029543;28;20107;-55
2022/08/23 01:57:43;;;;;;;39.28;24.77;;;;;;;22.05;42.91;100789.19;5013816;28;20037;-52
2022/08/23 02:00:10;;;;;;;33.58;26.17;;;;;;;22.07;42.90;100791.75;5031327;28;20033;-51
2022/08/23 02:02:36;;;;;;;36.55;25.48;;;;;;;22.11;42.92;100797.72;5021171;28;20045;-60
2022/08/23 02:05:06;;;;;;;33.63;24.48;;;;;;;22.06;43.20;100798.25;5011389;28;20042;-56
2022/08/23 02:07:31;;;;;;;35.42;25.27;;;;;;;22.08;43.08;100804.38;5012456;28;20362;-55
2022/08/23 02:09:57;;;;;;;34.10;25.02;;;;;;;22.06;43.28;100790.94;5029934;28;20106;-56
2022/08/23 02:12:23;;;;;;;36.53;24.92;;;;;;;22.02;43.40;100788.72;5031197;28;20303;-56
2022/08/23 02:14:48;;;;;;;33.88;26.13;;;;;;;22.03;43.21;100793.16;5016875;28;20458;-51
2022/08/23 02:17:15;;;;;;;41.05;25.00;;;;;;;21.99;43.26;100787.19;5011035;28;20022;-54
2022/08/23 02:19:42;;;;;;;34.53;24.33;;;;;;;22.01;43.27;100800.66;5011583;28;20037;-51
2022/08/23 02:22:09;;;;;;;34.22;25.00;;;;;;;22.02;43.54;100789.56;5027113;28;20509;-58
2022/08/23 02:24:39;;;;;;;32.95;24.10;;;;;;;22.07;43.20;100800.81;5031339;28;20033;-56
2022/08/23 02:27:04;;;;;;;30.92;22.92;;;;;;;22.09;43.28;100797.88;5030762;28;20428;-61
2022/08/23 02:29:31;;;;;;;34.53;24.45;;;;;;;22.11;43.46;100814.94;5030304;28;20083;-53
2022/08/23 02:31:57;;;;;;;30.23;23.65;;;;;;;22.12;43.28;100813.91;5031063;28;20105;-50
2022/08/23 02:34:24;;;;;;;33.67;23.98;;;;;;;22.13;43.46;100806.59;5028293;28;20033;-52
2022/08/23 02:36:49;;;;;;;32.78;24.02;;;;;;;22.08;43.65;100807.09;5010773;28;20585;-56
2022/08/23 02:39:16;;;;;;;32.00;23.42;;;;;;;21.96;43.70;100790.28;5011172;28;20121;-53
2022/08/23 02:41:42;;;;;;;33.63;24.52;;;;;;;22.10;43.58;100810.50;5023272;28;20025;-56
2022/08/23 02:44:09;;;;;;;35.30;23.05;;;;;;;22.07;43.59;100813.59;5031022;28;20462;-59
2022/08/23 02:46:35;;;;;;;37.22;24.80;;;;;;;22.10;43.86;100802.31;5030863;28;20829;-56
2022/08/23 02:49:02;;;;;;;32.15;24.38;;;;;;;22.05;43.89;100799.28;5028893;28;20040;-51
2022/08/23 02:51:27;;;;;;;34.15;24.98;;;;;;;22.12;43.94;100813.91;5030509;28;20037;-55
2022/08/23 02:53:52;;;;;;;34.30;26.65;;;;;;;22.16;44.00;100804.34;5030507;28;20021;-50
2022/08/23 02:56:18;;;;;;;36.25;25.40;;;;;;;22.21;43.66;100812.84;5020470;28;20431;-53
2022/08/23 02:58:44;;;;;;;37.33;25.48;;;;;;;22.20;43.75;100813.88;5011941;28;20030;-50
2022/08/23 03:01:19;;;;;;;37.63;26.00;;;;;;;22.31;43.46;100803.59;5012465;28;20025;-63
2022/08/23 03:03:45;;;;;;;40.67;25.83;;;;;;;22.35;43.48;100807.66;5023657;28;20141;-50
2022/08/23 03:06:14;;;;;;;33.40;24.10;;;;;;;22.35;43.77;100810.41;5034890;28;20120;-54
2022/08/23 03:08:41;;;;;;;35.35;23.95;;;;;;;22.34;43.75;100812.28;5034558;28;20408;-62
2022/08/23 03:11:22;;;;;;;31.40;23.83;;;;;;;22.49;43.24;100827.94;5017890;28;20117;-54
2022/08/23 03:13:48;;;;;;;37.10;23.38;;;;;;;22.46;43.48;100820.97;5014973;28;20030;-58
2022/08/23 03:16:14;;;;;;;32.60;22.50;;;;;;;22.48;43.46;100820.78;5014316;28;20041;-57
2022/08/23 03:18:41;;;;;;;32.80;24.23;;;;;;;22.54;43.74;100820.06;5033893;28;20037;-63
2022/08/23 03:21:08;;;;;;;29.35;22.80;;;;;;;22.64;43.28;100817.09;5034624;28;20048;-52
2022/08/23 03:23:35;;;;;;;36.85;23.50;;;;;;;22.69;43.19;100827.50;5022726;28;20026;-53
2022/08/23 03:26:02;;;;;;;31.55;23.20;;;;;;;22.75;42.86;100822.16;5014353;28;20033;-54
2022/08/23 03:28:29;;;;;;;34.78;22.83;;;;;;;22.78;42.95;100820.94;5015362;28;20032;-55
2022/08/23 03:30:55;;;;;;;31.55;22.27;;;;;;;22.83;43.00;100834.06;5014443;28;20045;-54
2022/08/23 03:33:21;;;;;;;35.97;22.88;;;;;;;22.92;42.97;100831.09;5014008;28;20026;-50
2022/08/23 03:35:47;;;;;;;32.35;22.40;;;;;;;22.98;43.03;100836.88;5018751;28;20041;-53
2022/08/23 03:38:14;;;;;;;38.08;21.92;;;;;;;23.10;42.54;100835.41;5034625;28;20037;-52
2022/08/23 03:40:41;;;;;;;31.45;22.38;;;;;;;23.20;42.15;100829.72;5034359;28;20410;-50
2022/08/23 03:43:06;;;;;;;37.55;22.45;;;;;;;23.27;42.19;100838.91;5024831;28;20022;-51
2022/08/23 03:45:32;;;;;;;33.10;22.30;;;;;;;23.37;41.74;100839.50;5013136;28;20445;-51
2022/08/23 03:47:57;;;;;;;31.67;21.05;;;;;;;23.49;41.85;100841.81;5014383;28;20038;-52
2022/08/23 03:50:23;;;;;;;29.17;21.73;;;;;;;23.59;41.69;100839.66;5030497;28;20034;-51
2022/08/23 03:52:48;;;;;;;36.22;21.73;;;;;;;23.74;41.38;100847.03;5032717;28;20061;-52
2022/08/23 03:55:14;;;;;;;27.05;20.85;;;;;;;23.89;41.18;100849.78;5032207;28;20029;-55
2022/08/23 03:57:40;;;;;;;33.92;21.35;;;;;;;24.10;40.79;100846.34;5034122;28;20171;-55
2022/08/23 04:00:08;;;;;;;36.15;21.42;;;;;;;24.35;40.20;100851.50;5033339;28;20030;-51
2022/08/23 04:02:34;;;;;;;33.85;21.52;;;;;;;24.54;39.92;100841.03;5029777;28;20089;-49
2022/08/23 04:05:00;;;;;;;30.95;21.98;;;;;;;24.72;39.28;100841.47;5013502;28;20115;-48
2022/08/23 04:07:25;;;;;;;35.20;22.45;;;;;;;24.90;39.04;100848.44;5013958;28;20120;-49
2022/08/23 04:09:51;;;;;;;35.10;20.70;;;;;;;24.93;38.67;100837.91;5026681;28;20208;-52
2022/08/23 04:12:17;;;;;;;36.88;21.08;;;;;;;25.07;38.46;100858.09;5032129;28;20086;-50
2022/08/23 04:14:43;;;;;;;32.10;21.08;;;;;;;25.11;38.79;100854.97;5032345;28;20029;-49
2022/08/23 04:17:09;;;;;;;35.33;21.90;;;;;;;25.27;38.47;100857.44;5033923;28;20037;-50
2022/08/23 04:19:35;;;;;;;29.63;20.42;;;;;;;25.47;37.83;100854.06;5022188;28;20041;-50
2022/08/23 04:22:00;;;;;;;32.13;21.27;;;;;;;25.71;37.70;100857.44;5012833;28;20041;-53
2022/08/23 04:24:26;;;;;;;40.35;21.50;;;;;;;25.93;37.37;100861.81;5013354;28;20091;-49
2022/08/23 04:26:51;;;;;;;32.25;21.65;;;;;;;26.13;36.83;100865.72;5013326;28;20034;-53
2022/08/23 04:29:17;;;;;;;37.63;22.67;;;;;;;26.27;36.53;100870.28;5021155;28;20112;-50
2022/08/23 04:31:43;;;;;;;31.70;20.15;;;;;;;26.38;36.22;100868.88;5032843;28;20077;-53
2022/08/23 04:34:09;;;;;;;24.10;19.05;;;;;;;26.55;35.94;100879.53;5027566;28;20029;-52
2022/08/23 04:36:37;;;;;;;29.75;20.08;;;;;;;26.76;35.80;100878.53;5013112;28;20548;-50
2022/08/23 04:39:03;;;;;;;28.17;19.98;;;;;;;26.80;35.24;100869.69;5018373;28;20021;-53
2022/08/23 04:44:30;;;;;;;36.95;20.50;;;;;;;27.26;34.85;100867.28;5030391;28;20394;-56
2022/08/23 04:46:55;;;;;;;26.88;19.70;;;;;;;27.79;33.55;100865.63;5020405;28;20053;-50
2022/08/23 04:49:22;;;;;;;30.30;20.27;;;;;;;28.15;32.93;100867.06;5012535;28;20040;-54
2022/08/23 04:51:48;;;;;;;29.23;19.98;;;;;;;28.58;32.27;100864.81;5010896;28;20037;-51
2022/08/23 04:54:14;;;;;;;29.80;19.23;;;;;;;29.00;31.50;100868.03;5011173;28;20034;-51
2022/08/23 04:56:40;;;;;;;31.10;20.13;;;;;;;29.42;30.93;100874.97;5019064;28;20034;-55
2022/08/23 04:59:06;;;;;;;30.92;18.40;;;;;;;29.67;30.39;100861.19;5028388;28;20170;-57
2022/08/23 05:01:32;;;;;;;33.05;19.02;;;;;;;30.19;29.51;100869.22;5014656;28;20585;-56
2022/08/23 05:03:59;;;;;;;27.90;17.55;;;;;;;31.02;28.46;100863.28;5010452;28;20162;-55
2022/08/23 05:06:24;;;;;;;26.15;17.95;;;;;;;32.26;26.75;100856.31;5020032;28;20059;-54
2022/08/23 05:08:50;;;;;;;23.90;17.20;;;;;;;33.19;25.37;100863.72;5032395;28;20450;-53
2022/08/23 05:11:17;;;;;;;30.67;17.00;;;;;;;34.24;23.95;100867.91;5032216;28;20474;-49
2022/08/23 05:13:43;;;;;;;30.88;17.38;;;;;;;34.85;23.28;100871.69;5027709;28;20372;-52
2022/08/23 05:16:09;;;;;;;28.23;16.30;;;;;;;34.80;22.86;100877.22;5012513;28;20036;-53
2022/08/23 05:18:35;;;;;;;23.30;17.17;;;;;;;34.47;23.10;100865.97;5012387;28;20040;-53
2022/08/23 05:21:00;;;;;;;28.55;16.67;;;;;;;34.48;23.50;100871.31;5018386;28;20104;-53
2022/08/23 05:23:26;;;;;;;23.40;16.63;;;;;;;34.39;23.61;100858.09;5031891;28;20061;-51
2022/08/23 05:25:53;;;;;;;28.55;17.33;;;;;;;34.47;23.25;100875.13;5032244;28;20025;-52
2022/08/23 05:28:21;;;;;;;21.25;16.25;;;;;;;34.67;23.19;100879.28;5021539;28;20026;-50
2022/08/23 05:30:56;;;;;;;24.33;16.15;;;;;;;35.12;23.30;100893.16;5024397;28;20124;-63
2022/08/23 05:33:22;;;;;;;26.92;15.70;;;;;;;35.37;22.38;100872.22;5032215;28;20114;-49
2022/08/23 05:35:48;;;;;;;22.83;15.57;;;;;;;35.59;22.12;100884.13;5031540;28;20100;-63
2022/08/23 05:38:14;;;;;;;23.45;14.25;;;;;;;35.14;22.50;100879.81;5014774;28;20033;-55
2022/08/23 05:40:39;;;;;;;21.75;14.23;;;;;;;34.75;23.00;100884.41;5011996;28;20117;-56
2022/08/23 05:43:05;;;;;;;21.23;13.55;;;;;;;34.74;23.26;100882.72;5018314;28;20160;-52
2022/08/23 05:45:30;;;;;;;25.48;14.25;;;;;;;35.01;22.70;100887.50;5031443;28;20057;-54
2022/08/23 05:47:56;;;;;;;20.83;14.68;;;;;;;35.45;21.91;100860.59;5031413;28;20047;-51
2022/08/23 05:50:22;;;;;;;21.08;13.95;;;;;;;35.94;21.49;100875.47;5021584;28;20113;-51
2022/08/23 05:52:47;;;;;;;22.73;13.48;;;;;;;35.97;21.22;100866.56;5012168;28;20561;-57
2022/08/23 05:55:13;;;;;;;19.98;13.80;;;;;;;36.14;21.20;100881.16;5011458;28;20022;-55
2022/08/23 05:57:38;;;;;;;21.40;12.48;;;;;;;36.37;20.71;100879.03;5011135;28;20044;-52
2022/08/23 06:00:09;;;;;;;19.75;14.10;;;;;;;36.77;20.39;100888.69;5011737;28;20063;-52
2022/08/23 06:02:34;;;;;;;25.88;14.13;;;;;;;37.07;20.39;100880.72;5012011;28;20059;-53
2022/08/23 06:05:00;;;;;;;22.60;13.30;;;;;;;37.47;19.78;100893.00;5012926;28;20449;-55
2022/08/23 06:07:26;;;;;;;22.75;13.07;;;;;;;37.79;19.40;100890.22;5030453;28;20037;-52
2022/08/23 06:09:53;;;;;;;18.13;13.32;;;;;;;38.27;18.73;100889.84;5031032;28;20075;-52
2022/08/23 06:12:19;;;;;;;23.40;13.38;;;;;;;38.33;18.76;100877.50;5031588;28;20033;-50
2022/08/23 06:14:44;;;;;;;19.25;13.15;;;;;;;38.35;18.71;100897.66;5018655;28;20026;-54
2022/08/23 06:17:10;;;;;;;20.10;13.55;;;;;;;37.50;19.19;100905.59;5011087;28;20161;-54
2022/08/23 06:19:36;;;;;;;18.15;13.25;;;;;;;36.81;20.34;100902.09;5011245;28;20113;-50
2022/08/23 06:22:02;;;;;;;22.80;13.68;;;;;;;36.37;20.65;100892.97;5010275;28;20121;-56
2022/08/23 06:24:28;;;;;;;24.55;14.45;;;;;;;35.73;21.56;100912.38;5029057;28;20029;-50
2022/08/23 06:26:54;;;;;;;21.58;12.63;;;;;;;35.29;22.05;100920.88;5030507;28;20037;-52
2022/08/23 06:29:20;;;;;;;21.85;12.95;;;;;;;34.92;22.65;100914.06;5031119;28;20080;-53
2022/08/23 06:31:48;;;;;;;22.50;13.52;;;;;;;34.82;22.81;100916.72;5018227;28;20457;-53
2022/08/23 06:34:19;;;;;;;19.98;13.57;;;;;;;35.00;22.32;100919.22;5010638;28;20034;-56
2022/08/23 06:36:47;;;;;;;21.13;12.43;;;;;;;35.20;22.15;100917.72;5010533;28;20045;-54
2022/08/23 06:39:14;;;;;;;18.13;12.27;;;;;;;35.56;21.89;100926.44;5026545;28;20037;-51
2022/08/23 06:41:40;;;;;;;22.55;12.85;;;;;;;36.29;20.98;100924.19;5030445;28;20037;-54
2022/08/23 06:44:07;;;;;;;24.70;13.10;;;;;;;37.46;19.99;100910.88;5030698;28;20025;-53
2022/08/23 06:46:32;;;;;;;25.80;13.10;;;;;;;39.21;17.79;100907.84;5028063;28;20041;-53
2022/08/23 06:48:59;;;;;;;20.65;13.20;;;;;;;40.37;16.76;100917.72;5013157;28;20053;-52
2022/08/23 06:51:31;;;;;;;23.35;12.38;;;;;;;41.07;16.31;100923.84;5011140;28;20037;-53
2022/08/23 06:54:00;;;;;;;23.10;13.10;;;;;;;41.92;15.22;100925.81;5013042;28;20350;-53
2022/08/23 06:56:27;;;;;;;14.48;11.55;;;;;;;43.24;14.01;100928.13;5029649;28;20041;-59
2022/08/23 06:58:53;;;;;;;19.67;12.88;;;;;;;44.27;13.26;100907.69;5028929;28;20133;-61
2022/08/23 07:01:26;;;;;;;18.98;12.50;;;;;;;45.35;12.26;100932.94;5029505;28;20037;-58
2022/08/23 07:03:55;;;;;;;18.75;11.50;;;;;;;45.96;12.07;100921.47;5030738;28;20053;-58
2022/08/23 07:06:27;;;;;;;17.23;12.30;;;;;;;46.94;11.28;100925.41;5029664;28;20030;-59
2022/08/23 07:08:52;;;;;;;19.60;12.23;;;;;;;46.98;10.96;100923.53;5011923;28;20038;-68
2022/08/23 07:11:19;;;;;;;16.00;11.90;;;;;;;47.31;10.66;100924.78;5010786;28;20501;-57
2022/08/23 07:13:45;;;;;;;23.73;12.45;;;;;;;46.43;11.14;100920.56;5011437;28;20113;-56
2022/08/23 07:16:11;;;;;;;20.90;11.82;;;;;;;44.73;12.67;100922.41;5009541;28;20041;-55
2022/08/23 07:18:37;;;;;;;18.73;11.68;;;;;;;43.20;13.70;100924.28;5010415;28;20121;-57
2022/08/23 07:21:04;;;;;;;23.90;12.45;;;;;;;41.62;15.46;100926.09;5016267;28;20121;-57
2022/08/23 07:23:32;;;;;;;20.73;12.55;;;;;;;40.58;16.18;100927.56;5030155;28;20030;-54
2022/08/23 07:26:03;;;;;;;20.85;11.50;;;;;;;40.56;16.67;100926.19;5030192;28;20065;-49
2022/08/23 07:28:28;;;;;;;20.38;12.75;;;;;;;41.35;15.91;100927.59;5028847;28;20037;-61
2022/08/23 07:30:54;;;;;;;19.98;12.00;;;;;;;42.56;14.72;100913.88;5026609;28;20041;-60
2022/08/23 07:33:21;;;;;;;17.48;11.88;;;;;;;43.62;13.57;100928.88;5018485;28;20030;-58
2022/08/23 07:35:52;;;;;;;21.48;10.75;;;;;;;44.47;13.17;100930.78;5019972;28;20030;-60
2022/08/23 07:38:18;;;;;;;18.50;11.40;;;;;;;45.02;12.45;100926.59;5017133;28;20493;-60
2022/08/23 07:40:44;;;;;;;21.75;12.00;;;;;;;45.83;11.96;100926.19;5016571;28;20029;-61
2022/08/23 07:43:10;;;;;;;21.08;11.90;;;;;;;46.27;11.81;100916.66;5018885;28;20068;-59
2022/08/23 07:45:36;;;;;;;17.65;11.63;;;;;;;46.10;11.92;100935.38;5018690;28;20025;-60
2022/08/23 07:48:02;;;;;;;20.40;11.50;;;;;;;45.92;11.98;100922.47;5021334;28;20026;-61
2022/08/23 07:50:28;;;;;;;17.92;11.73;;;;;;;45.63;12.25;100924.06;5021849;28;20026;-60
2022/08/23 07:52:54;;;;;;;18.85;11.10;;;;;;;44.96;12.79;100922.28;5020045;28;20374;-60
2022/08/23 07:55:20;;;;;;;17.27;11.10;;;;;;;44.45;13.29;100927.47;5022195;28;20381;-61
2022/08/23 07:57:45;;;;;;;19.63;11.68;;;;;;;43.84;13.35;100920.41;5022561;28;20029;-60
2022/08/23 08:00:11;;;;;;;18.52;11.38;;;;;;;43.01;14.09;100919.66;5021848;28;20116;-60
2022/08/23 08:02:36;;;;;;;20.52;11.82;;;;;;;42.09;15.23;100925.25;5021143;28;20376;-60
2022/08/23 08:05:02;;;;;;;22.70;11.45;;;;;;;41.31;15.72;100926.56;5019976;28;20126;-60
2022/08/23 08:07:28;;;;;;;21.13;12.27;;;;;;;40.68;16.70;100926.59;5022373;28;20045;-59
2022/08/23 08:09:54;;;;;;;19.17;11.02;;;;;;;40.23;17.07;100915.63;5020261;28;20025;-60
2022/08/23 08:12:19;;;;;;;18.33;11.57;;;;;;;39.65;17.67;100920.09;5023229;28;20052;-60
2022/08/23 08:14:47;;;;;;;21.55;10.90;;;;;;;38.94;18.29;100920.34;5020242;28;20309;-61
2022/08/23 08:17:12;;;;;;;20.70;11.68;;;;;;;38.07;19.57;100918.69;5019636;28;20026;-61
2022/08/23 08:19:40;;;;;;;21.10;12.45;;;;;;;37.43;20.07;100910.59;5021687;28;20033;-61
2022/08/23 08:22:05;;;;;;;19.92;12.02;;;;;;;36.78;20.81;100912.69;5020652;28;20052;-59
2022/08/23 08:24:31;;;;;;;23.92;11.55;;;;;;;36.15;21.40;100921.84;5022092;28;20462;-58
2022/08/23 08:26:56;;;;;;;24.05;12.38;;;;;;;35.58;22.13;100918.66;5019819;28;20033;-62
2022/08/23 08:29:22;;;;;;;16.30;10.98;;;;;;;35.17;22.73;100918.25;5022121;28;20438;-59
2022/08/23 08:31:48;;;;;;;19.58;11.48;;;;;;;34.69;23.40;100915.19;5020245;28;20041;-60
2022/08/23 08:34:14;;;;;;;19.92;11.70;;;;;;;34.33;23.92;100915.53;5019094;28;20028;-60
2022/08/23 08:36:43;;;;;;;13.95;10.68;;;;;;;34.13;24.09;100918.88;5019970;28;20029;-59
2022/08/23 08:39:12;;;;;;;18.02;10.95;;;;;;;33.90;24.60;100913.22;5020605;28;20030;-60
2022/08/23 08:41:49;;;;;;;17.45;11.68;;;;;;;34.11;24.46;100918.28;5020896;28;20437;-61
2022/08/23 08:44:34;;;;;;;15.55;11.40;;;;;;;34.38;23.65;100915.59;5017545;28;20120;-59
2022/08/23 08:47:12;;;;;;;21.77;12.18;;;;;;;33.96;24.71;100907.78;5020319;28;20025;-58
2022/08/23 08:49:50;;;;;;;19.42;10.93;;;;;;;33.96;24.66;100924.44;5018117;28;20072;-59
2022/08/23 08:52:29;;;;;;;18.92;11.10;;;;;;;34.17;24.38;100922.84;5020519;28;20036;-62
2022/08/23 08:55:04;;;;;;;23.17;11.77;;;;;;;34.05;24.44;100920.97;5020284;28;20045;-61
2022/08/23 08:57:36;;;;;;;20.10;10.43;;;;;;;33.78;25.06;100893.06;5022985;28;20481;-60
2022/08/23 09:00:16;;;;;;;17.27;11.25;;;;;;;34.18;24.62;100925.34;5031588;28;20041;-61
2022/08/23 09:02:43;;;;;;;12.82;9.85;;;;;;;34.02;24.20;100909.56;5011764;28;20085;-61
2022/08/23 09:05:17;;;;;;;14.23;10.10;;;;;;;33.95;24.54;100920.81;5012312;28;20050;-62
2022/08/23 09:07:55;;;;;;;16.65;10.25;;;;;;;33.91;24.51;100914.09;5013451;28;20048;-62
2022/08/23 09:10:52;;;;;;;19.73;10.45;;;;;;;34.19;24.33;100927.03;5018934;28;20037;-60
2022/08/23 09:13:19;;;;;;;16.95;10.30;;;;;;;34.05;24.22;100914.59;5017903;28;20403;-61
2022/08/23 09:16:03;;;;;;;15.93;9.20;;;;;;;34.33;24.03;100912.78;5020593;28;20103;-60
2022/08/23 09:18:33;;;;;;;15.13;10.02;;;;;;;34.05;24.25;100906.28;5020399;28;20412;-60
2022/08/23 09:21:01;;;;;;;13.77;10.05;;;;;;;33.69;24.91;100905.66;5019401;28;20127;-60
2022/08/23 09:23:44;;;;;;;12.70;9.25;;;;;;;33.73;24.41;100901.28;5021233;28;20068;-59
2022/08/23 09:26:26;;;;;;;17.90;10.05;;;;;;;33.68;24.61;100906.75;5022644;28;20025;-67
2022/08/23 09:28:58;;;;;;;19.77;9.88;;;;;;;33.74;24.96;100902.97;5021005;28;20041;-62
2022/08/23 09:31:40;;;;;;;15.05;9.88;;;;;;;33.99;24.44;100898.94;5020948;28;20044;-61
2022/08/23 09:34:06;;;;;;;15.18;10.10;;;;;;;34.05;24.59;100914.59;5020587;28;20071;-59
2022/08/23 09:36:34;;;;;;;15.30;10.48;;;;;;;34.08;24.29;100914.09;5021035;28;20030;-61
2022/08/23 09:39:22;;;;;;;14.93;9.93;;;;;;;34.05;23.92;100903.50;5019701;28;20029;-62
2022/08/23 09:41:49;;;;;;;18.75;9.98;;;;;;;33.98;24.68;100886.13;5021315;28;20037;-62
2022/08/23 09:44:39;;;;;;;13.10;9.13;;;;;;;34.15;23.97;100923.06;5013278;28;20026;-72
2022/08/23 09:47:15;;;;;;;12.77;9.75;;;;;;;34.13;24.29;100905.81;5024892;28;20034;-60
2022/08/23 09:49:43;;;;;;;12.75;9.70;;;;;;;33.87;23.87;100888.75;5017234;28;20034;-60
2022/08/23 09:52:34;;;;;;;11.05;9.23;;;;;;;33.87;24.14;100902.63;5011606;28;20034;-60
2022/08/23 09:55:03;;;;;;;15.25;9.68;;;;;;;33.73;24.66;100910.47;5010481;28;20112;-61
2022/08/23 09:57:32;;;;;;;14.82;9.60;;;;;;;33.75;24.68;100904.66;5012934;28;20057;-62
2022/08/23 10:00:32;;;;;;;15.57;9.32;;;;;;;33.71;24.47;100892.38;5030782;28;20026;-61
2022/08/23 10:03:22;;;;;;;14.15;9.73;;;;;;;33.73;24.65;100895.72;5010813;28;20049;-63
2022/08/23 10:05:56;;;;;;;16.30;9.85;;;;;;;33.61;25.13;100891.13;5011408;28;20049;-61
2022/08/23 10:08:27;;;;;;;12.30;9.68;;;;;;;33.73;24.90;100904.06;5029765;28;20033;-64
2022/08/23 10:10:57;;;;;;;13.13;8.57;;;;;;;33.66;24.23;100898.72;5029989;28;20473;-62
2022/08/23 10:13:22;;;;;;;13.27;9.50;;;;;;;33.76;24.25;100882.19;5028622;28;20105;-62
2022/08/23 10:16:03;;;;;;;16.65;9.57;;;;;;;33.95;24.19;100897.72;5030386;28;20036;-61
2022/08/23 10:18:55;;;;;;;11.93;9.52;;;;;;;34.12;24.27;100890.25;5025023;28;20052;-60
2022/08/23 10:21:38;;;;;;;16.50;9.63;;;;;;;34.29;24.10;100886.59;5030898;28;20025;-60
2022/08/23 10:24:28;;;;;;;15.40;9.30;;;;;;;34.40;23.33;100882.00;5030492;28;20176;-61
2022/08/23 10:31:16;;;;;;;11.10;10.02;;;;;;;34.28;23.55;100882.13;4975304;28;20057;-61
2022/08/23 10:33:49;;;;;;;10.95;9.52;;;;;;;34.18;23.35;100888.38;5027695;28;20049;-61
2022/08/23 10:36:20;;;;;;;15.27;9.73;;;;;;;34.26;23.18;100899.03;5018210;28;20033;-60
2022/08/23 10:38:57;;;;;;;13.68;8.82;;;;;;;34.38;22.84;100890.59;5009563;28;20478;-60
2022/08/23 10:41:57;;;;;;;10.68;8.43;;;;;;;34.54;22.95;100879.72;5012229;28;20042;-60
2022/08/23 10:44:31;;;;;;;14.43;8.88;;;;;;;34.68;22.76;100883.75;5014923;28;20041;-59
2022/08/23 10:47:37;;;;;;;11.00;8.10;;;;;;;35.05;22.09;100874.72;5024234;28;20044;-62
2022/08/23 10:50:18;;;;;;;10.00;9.00;;;;;;;34.95;22.28;100882.94;5014470;28;20030;-62
2022/08/23 10:52:49;;;;;;;11.73;8.63;;;;;;;34.97;21.96;100888.25;5007690;28;20427;-61
2022/08/23 10:55:34;;;;;;;12.32;8.23;;;;;;;34.94;21.59;100884.03;5023873;28;20128;-60
2022/08/23 10:58:02;;;;;;;11.75;8.05;;;;;;;35.01;21.73;100864.38;5027761;28;20036;-62
2022/08/23 11:00:29;;;;;;;9.52;8.05;;;;;;;35.01;21.57;100876.38;5025322;28;20033;-62
2022/08/23 11:03:03;;;;;;;10.32;7.63;;;;;;;35.01;21.38;100884.72;5008514;28;20030;-61
2022/08/23 11:05:31;;;;;;;11.07;8.32;;;;;;;35.03;21.32;100876.09;5021302;28;20046;-63
2022/08/23 11:08:02;;;;;;;12.02;8.27;;;;;;;34.99;21.47;100870.19;5026193;28;20052;-62
2022/08/23 11:10:39;;;;;;;11.82;8.00;;;;;;;35.00;21.63;100876.59;5028079;28;20053;-61
2022/08/23 11:13:21;;;;;;;12.90;7.70;;;;;;;35.06;21.44;100881.13;5027333;28;20482;-62
2022/08/23 11:15:58;;;;;;;11.02;8.05;;;;;;;34.88;21.36;100885.09;5007716;28;20265;-62
2022/08/23 11:18:49;;;;;;;11.35;8.15;;;;;;;34.80;21.75;100880.00;5024948;28;20080;-61
2022/08/23 11:21:17;;;;;;;8.85;7.95;;;;;;;34.61;21.91;100885.91;5009936;28;20041;-63
2022/08/23 11:23:48;;;;;;;10.85;7.78;;;;;;;34.45;22.02;100874.56;5019006;28;20041;-62
2022/08/23 11:26:25;;;;;;;11.93;8.15;;;;;;;34.60;21.87;100870.31;5025221;28;20033;-61
2022/08/23 11:29:06;;;;;;;10.32;7.65;;;;;;;34.71;21.56;100885.19;5025011;28;20401;-60
2022/08/23 11:32:09;;;;;;;8.88;7.55;;;;;;;34.87;21.33;100880.63;5033755;28;20183;-60
2022/08/23 11:35:07;;;;;;;11.13;7.57;;;;;;;34.57;21.59;100868.88;5016121;28;20386;-60